ASN logo
ASN Wikibase Occurrence # 236666
Last updated: 11 November 2020
This information is added by users of ASN. Neither ASN nor the Flight Safety Foundation are responsible for the completeness or correctness of this information. If you feel this information is incomplete or incorrect, you can submit corrected information.

Date:03-JUN-2020
Time:06:43 UTC
Type:Silhouette image of generic MD11 model; specific model in this crash may look slightly different
McDonnell Douglas MD-11F
Owner/operator:FedEx
Registration: N583FE
C/n / msn: 48421
Fatalities:Fatalities: 0 / Occupants:
Other fatalities:0
Aircraft damage: None
Location:Mumbai-Chhatrapati Shivaji International Airport (BOM/VABB) -   India
Phase: Landing
Nature:Cargo
Departure airport:Bengaluru (Bangalore) International Airport (BLR/VOBL)
Destination airport:Mumbai-Chhatrapati Shivaji International Airport (BOM/VABB)
Narrative:
FedEx flight FX5033, an MD-11F, came to a stop on the stopway of runway 14 after landing at Mumbai Airport, India by 9 meters.
There was no damage. The aircraft was immobilized for 30 minutes before it was able to taxiway to the apron.

Weather reported about the incident time (0643Z):
VABB 030700Z 02013G23KT 2200 -RA FEW012 SCT018 FEW030CB OVC080 27/25 Q0996 TEMPO 1500 SHRA
VABB 030630Z 03011G21KT 2200 -RA FEW012 SCT018 FEW030CB OVC080 27/25 Q0997 TEMPO 1500 SHRA
VABB 030600Z 03010G20KT 2200 -RA FEW012 SCT018 FEW030CB OVC080 27/25 Q0998 TEMPO 1500 SHRA

Sources:

https://www.flightradar24.com/data/aircraft/n583fe#249ee0a5

Media:


Images:

Photo of N583FE courtesy AirHistory.net


Paris - Charles de Gaulle (LFPG / CDG)
21 July 2009; (c) Anton Homma

Revision history:

Date/timeContributorUpdates
03-Jun-2020 08:41 harro Added
03-Jun-2020 08:42 harro Updated [Location, Embed code, Narrative]
03-Jun-2020 16:08 harro Updated [Embed code]
03-Jun-2020 16:51 Anon. Updated [Embed code, Narrative]

Corrections or additions? ... Edit this accident description